EGVA - Fairford Royal AFB
Distance from station: E 5mi, 14km
Updated: 10/20/2017 9:10pm
Partly Cloudy
Partly Cloudy
 Wind from SSW
Wind: SSW 14 mph , 22 km/h
Temperature: 55°F , 13°C
Dew Point: 50°F , 10°C
Humidity: 82%
Barometer: 29.51 inHg , 999.3 hPa
Clouds: Partly Cloudy
Visibility: 6 miles , 10 km
Cloud details: Few Clouds 1900 ft
Partly Cloudy 2600 ft
Partly Cloudy 12000 ft
2017/10/21 04:10 EGVA 210410Z AUTO 21012KT 9999 FEW019 SCT026 SCT120 13/10 A2951 RMK AO2 RAE00 SLP996 $